Time;durP1;ratioP1;P1;durP2;ratioP2;P2;SDS_P1;SDS_P2;PMS_P1;PMS_P2;Temp;Humidity;BMP_temperature;BMP_pressure;BME280_temperature;BME280_humidity;BME280_pressure;Samples;Min_cycle;Max_cycle;Signal;HPM_P1;HPM_P2
2022/09/20 00:02:22;;;;;;;1999.90;999.90;;;10.60;99.90;;;;;;5049049;28;20471;-71
2022/09/20 00:04:49;;;;;;;1999.90;999.90;;;10.50;99.90;;;;;;5041590;28;20459;-73
2022/09/20 00:07:16;;;;;;;1999.90;999.90;;;10.50;99.90;;;;;;5049487;28;20482;-71
2022/09/20 00:09:42;;;;;;;1999.90;999.90;;;10.40;99.90;;;;;;5055901;28;20516;-74
2022/09/20 00:12:09;;;;;;;1999.90;999.90;;;10.40;99.90;;;;;;5050036;28;20532;-73
2022/09/20 00:14:36;;;;;;;1999.90;999.90;;;10.40;99.90;;;;;;5056816;28;20468;-72
2022/09/20 00:17:02;;;;;;;1999.90;999.90;;;10.40;99.90;;;;;;5049271;28;20494;-69
2022/09/20 00:19:30;;;;;;;1999.90;999.90;;;10.30;99.90;;;;;;5057099;28;20873;-71
2022/09/20 00:21:57;;;;;;;1999.90;999.90;;;10.30;99.90;;;;;;5051418;28;20469;-72
2022/09/20 00:24:27;;;;;;;1999.90;999.90;;;10.30;99.90;;;;;;5051065;28;20534;-70
2022/09/20 00:26:54;;;;;;;1999.90;999.90;;;10.00;99.90;;;;;;5050725;28;20504;-71
2022/09/20 00:29:20;;;;;;;1999.90;999.90;;;10.20;99.90;;;;;;5050036;28;20486;-71
2022/09/20 00:31:47;;;;;;;1999.90;999.90;;;10.20;99.90;;;;;;5054022;28;20508;-69
2022/09/20 00:36:59;;;;;;;1999.90;999.90;;;10.20;99.90;;;;;;5047482;28;20548;-72
2022/09/20 00:39:26;;;;;;;1999.90;999.90;;;10.20;99.90;;;;;;5050350;28;20517;-73
2022/09/20 00:41:53;;;;;;;1999.90;999.90;;;10.20;99.90;;;;;;5054513;28;20470;-70
2022/09/20 00:44:42;;;;;;;1999.90;999.90;;;10.20;99.90;;;;;;5053360;28;20616;-73
2022/09/20 00:47:16;;;;;;;1999.90;999.90;;;10.10;99.90;;;;;;5047683;28;20490;-73
2022/09/20 00:49:43;;;;;;;1999.90;999.90;;;10.10;99.90;;;;;;5053995;28;20961;-72
2022/09/20 00:52:11;;;;;;;1999.90;999.90;;;10.00;99.90;;;;;;5058697;28;20484;-73
2022/09/20 00:54:38;;;;;;;1999.90;999.90;;;10.00;99.90;;;;;;5060629;28;20458;-73
2022/09/20 00:57:05;;;;;;;1999.90;999.90;;;10.00;99.90;;;;;;5058576;28;20490;-72
2022/09/20 00:59:38;;;;;;;1999.90;999.90;;;10.00;99.90;;;;;;5059736;28;20466;-73
2022/09/20 01:02:09;;;;;;;1999.90;999.90;;;10.00;99.90;;;;;;5053947;28;20462;-68
2022/09/20 01:04:38;;;;;;;1999.90;999.90;;;10.00;99.90;;;;;;5057006;28;20519;-73
2022/09/20 01:07:09;;;;;;;1999.90;999.90;;;10.00;99.90;;;;;;5056258;28;20486;-72
2022/09/20 01:09:37;;;;;;;1999.90;999.90;;;9.90;99.90;;;;;;5053563;28;20457;-74
2022/09/20 01:12:09;;;;;;;1999.90;999.90;;;10.00;99.90;;;;;;5053064;28;20886;-71
2022/09/20 01:14:36;;;;;;;1999.90;999.90;;;10.00;99.90;;;;;;5052627;28;20531;-73
2022/09/20 01:17:05;;;;;;;1999.90;999.90;;;10.00;99.90;;;;;;5052864;28;20515;-71
2022/09/20 01:19:39;;;;;;;1999.90;999.90;;;10.10;99.90;;;;;;5053000;28;20458;-73
2022/09/20 01:22:16;;;;;;;1999.90;999.90;;;10.00;99.90;;;;;;5060688;28;20468;-71
2022/09/20 01:24:51;;;;;;;1999.90;999.90;;;10.00;99.90;;;;;;5047158;28;20515;-73
2022/09/20 01:27:26;;;;;;;1999.90;999.90;;;10.10;99.90;;;;;;5051064;28;20489;-73
2022/09/20 01:30:05;;;;;;;1999.90;999.90;;;10.20;99.90;;;;;;5055101;28;20484;-74
2022/09/20 01:32:42;;;;;;;1999.90;999.90;;;10.30;99.90;;;;;;5052550;28;20957;-73
2022/09/20 01:35:10;;;;;;;1999.90;999.90;;;10.30;99.90;;;;;;5051504;28;20453;-72
2022/09/20 01:37:49;;;;;;;1999.90;999.90;;;10.30;99.90;;;;;;5052581;28;20552;-74
2022/09/20 01:40:24;;;;;;;1999.90;999.90;;;10.30;99.90;;;;;;5056860;28;20457;-72
2022/09/20 01:43:01;;;;;;;1999.90;999.90;;;10.30;99.90;;;;;;5049459;28;20487;-69
2022/09/20 01:45:31;;;;;;;1999.90;999.90;;;10.30;99.90;;;;;;5052732;28;20462;-72
2022/09/20 01:48:08;;;;;;;1999.90;999.90;;;10.20;99.90;;;;;;5053270;28;21017;-70
2022/09/20 01:50:40;;;;;;;1999.90;999.90;;;10.20;99.90;;;;;;5052311;28;21100;-72
2022/09/20 01:53:35;;;;;;;1999.90;999.90;;;10.10;99.90;;;;;;5051965;28;20466;-70
2022/09/20 01:56:14;;;;;;;1999.90;999.90;;;10.10;99.90;;;;;;5055535;28;20480;-70
2022/09/20 01:59:18;;;;;;;1999.90;999.90;;;10.10;99.90;;;;;;5052047;28;20463;-72
2022/09/20 02:02:09;;;;;;;1999.90;999.90;;;10.10;99.90;;;;;;4991383;28;20459;-70
2022/09/20 02:04:57;;;;;;;1999.90;999.90;;;10.10;99.90;;;;;;5050730;28;20477;-69
2022/09/20 02:07:57;;;;;;;1999.90;999.90;;;10.10;99.90;;;;;;5049812;28;20477;-72
2022/09/20 02:10:41;;;;;;;1999.90;999.90;;;10.10;99.90;;;;;;5046567;28;20572;-71
2022/09/20 02:13:19;;;;;;;1999.90;999.90;;;10.20;99.90;;;;;;5057216;28;20519;-67
2022/09/20 02:16:22;;;;;;;1999.90;999.90;;;10.20;99.90;;;;;;5059993;28;20462;-69
2022/09/20 02:19:12;;;;;;;1999.90;999.90;;;10.30;99.90;;;;;;5010031;28;20466;-72
2022/09/20 02:21:47;;;;;;;1999.90;999.90;;;10.30;99.90;;;;;;5051892;28;20470;-71
2022/09/20 02:24:23;;;;;;;1999.90;999.90;;;10.40;99.90;;;;;;5050924;28;20527;-71
2022/09/20 02:27:03;;;;;;;1999.90;999.90;;;10.40;99.90;;;;;;5047664;28;20493;-72
2022/09/20 02:29:40;;;;;;;1999.90;999.90;;;10.50;99.90;;;;;;5051722;28;20482;-71
2022/09/20 02:32:23;;;;;;;1999.90;999.90;;;10.50;99.90;;;;;;5059524;28;20461;-69
2022/09/20 02:35:16;;;;;;;1999.90;999.90;;;10.60;99.90;;;;;;5047888;28;20470;-72
2022/09/20 02:38:11;;;;;;;1999.90;999.90;;;10.60;99.90;;;;;;5054321;28;20482;-71
2022/09/20 02:40:54;;;;;;;1999.90;999.90;;;10.70;99.90;;;;;;5051813;28;20544;-70
2022/09/20 02:43:27;;;;;;;1999.90;999.90;;;10.70;99.90;;;;;;5051723;28;20459;-72
2022/09/20 02:46:03;;;;;;;1999.90;999.90;;;10.60;99.90;;;;;;5042277;28;20493;-71
2022/09/20 02:48:38;;;;;;;1999.90;999.90;;;10.60;99.90;;;;;;5054761;28;20479;-72
2022/09/20 02:51:16;;;;;;;1999.90;999.90;;;10.70;99.90;;;;;;5056534;28;20460;-69
2022/09/20 02:53:51;;;;;;;1999.90;999.90;;;10.70;99.90;;;;;;5052366;28;20470;-72
2022/09/20 02:56:25;;;;;;;1999.90;999.90;;;10.80;99.90;;;;;;5048869;28;20536;-69
2022/09/20 02:58:59;;;;;;;1999.90;999.90;;;10.70;99.90;;;;;;5052106;28;20462;-73
2022/09/20 03:01:38;;;;;;;1999.90;999.90;;;10.80;99.90;;;;;;5049569;28;20463;-71
2022/09/20 03:04:19;;;;;;;1999.90;999.90;;;10.80;99.90;;;;;;5056093;28;20502;-71
2022/09/20 03:06:55;;;;;;;1999.90;999.90;;;10.80;99.90;;;;;;5055339;28;20486;-71
2022/09/20 03:09:31;;;;;;;1999.90;999.90;;;10.70;99.90;;;;;;5048310;28;21060;-72
2022/09/20 03:12:07;;;;;;;1999.90;999.90;;;10.80;99.90;;;;;;5050592;28;20458;-72
2022/09/20 03:14:40;;;;;;;1999.90;999.90;;;10.80;99.90;;;;;;5049482;28;20465;-70
2022/09/20 03:17:19;;;;;;;1999.90;999.90;;;10.70;99.90;;;;;;5048226;28;21088;-72
2022/09/20 03:20:06;;;;;;;1999.90;999.90;;;10.80;99.90;;;;;;5053947;28;20462;-71
2022/09/20 03:22:48;;;;;;;1999.90;999.90;;;10.80;99.90;;;;;;5057031;28;20462;-72
2022/09/20 03:25:39;;;;;;;1999.90;999.90;;;10.80;99.90;;;;;;5057110;28;20462;-69
2022/09/20 03:28:20;;;;;;;1999.90;999.90;;;10.80;99.90;;;;;;5054779;28;20465;-69
2022/09/20 03:30:58;;;;;;;1999.90;999.90;;;10.80;99.90;;;;;;5049775;28;20465;-72
2022/09/20 03:33:35;;;;;;;1999.90;999.90;;;10.80;99.90;;;;;;5049875;28;20453;-72
2022/09/20 03:36:15;;;;;;;1999.90;999.90;;;10.80;99.90;;;;;;5057232;28;20538;-72
2022/09/20 03:39:02;;;;;;;1999.90;999.90;;;10.80;99.90;;;;;;5049020;28;20462;-73
2022/09/20 03:41:46;;;;;;;1999.90;999.90;;;10.80;99.90;;;;;;5053443;28;20463;-71
2022/09/20 03:44:30;;;;;;;1999.90;999.90;;;10.70;99.90;;;;;;5048230;28;20462;-69
2022/09/20 03:47:12;;;;;;;1999.90;999.90;;;10.70;99.90;;;;;;5048125;28;20530;-70
2022/09/20 03:50:05;;;;;;;1999.90;999.90;;;10.70;99.90;;;;;;5054710;28;20486;-73
2022/09/20 03:52:56;;;;;;;1999.90;999.90;;;10.80;99.90;;;;;;5043036;28;20516;-71
2022/09/20 03:55:42;;;;;;;1999.90;999.90;;;10.80;99.90;;;;;;5046566;28;20874;-71
2022/09/20 03:58:30;;;;;;;1999.90;999.90;;;10.80;99.90;;;;;;5050748;28;20465;-71
2022/09/20 04:01:23;;;;;;;1999.90;999.90;;;10.80;99.90;;;;;;5049758;28;20465;-73
2022/09/20 04:03:55;;;;;;;1999.90;999.90;;;10.80;99.90;;;;;;5047934;28;20481;-73
2022/09/20 04:06:45;;;;;;;1999.90;999.90;;;10.80;99.90;;;;;;5050252;28;20486;-70
2022/09/20 04:09:34;;;;;;;1999.90;999.90;;;10.80;99.90;;;;;;5052134;28;21001;-72
2022/09/20 04:12:07;;;;;;;1999.90;999.90;;;10.80;99.90;;;;;;5046569;28;20480;-74
2022/09/20 04:14:43;;;;;;;1999.90;999.90;;;10.80;99.90;;;;;;5046584;28;20475;-73
2022/09/20 04:17:24;;;;;;;1999.90;999.90;;;10.80;99.90;;;;;;5047015;28;20497;-73
2022/09/20 04:19:58;;;;;;;1999.90;999.90;;;10.80;99.90;;;;;;5056835;28;20473;-73
2022/09/20 04:22:28;;;;;;;1999.90;999.90;;;10.80;99.90;;;;;;5047159;28;20961;-71
2022/09/20 04:25:00;;;;;;;1999.90;999.90;;;10.70;99.90;;;;;;5045592;28;20474;-71
2022/09/20 04:27:33;;;;;;;1999.90;999.90;;;10.70;99.90;;;;;;5055748;22;20503;-73
2022/09/20 04:30:04;;;;;;;1999.90;999.90;;;10.70;99.90;;;;;;5028169;28;20497;-72
2022/09/20 04:32:39;;;;;;;1999.90;999.90;;;10.80;99.90;;;;;;5028417;28;20467;-72
2022/09/20 04:38:12;;;;;;;1999.90;999.90;;;10.80;99.90;;;;;;5027193;28;20482;-69
2022/09/20 04:41:07;;;;;;;1999.90;999.90;;;10.80;99.90;;;;;;5027368;28;20478;-68
2022/09/20 04:44:12;;;;;;;1999.90;999.90;;;10.80;99.90;;;;;;5027359;28;22312;-72
2022/09/20 04:47:18;;;;;;;1999.90;999.90;;;10.80;99.90;;;;;;5028844;28;20483;-72
2022/09/20 04:50:14;;;;;;;1999.90;999.90;;;10.80;99.90;;;;;;5028567;28;20517;-71
2022/09/20 04:53:14;;;;;;;1999.90;999.90;;;10.80;99.90;;;;;;5005470;28;20454;-71
2022/09/20 04:56:00;;;;;;;1999.90;999.90;;;10.80;99.90;;;;;;5027266;28;20465;-71
2022/09/20 04:58:39;;;;;;;1999.90;999.90;;;10.80;99.90;;;;;;5028338;28;21001;-71
2022/09/20 05:01:41;;;;;;;1999.90;999.90;;;10.80;99.90;;;;;;5026914;28;20455;-69
2022/09/20 05:04:35;;;;;;;1999.90;999.90;;;10.80;99.90;;;;;;4995163;28;20466;-71
2022/09/20 05:07:34;;;;;;;1999.90;999.90;;;10.70;99.90;;;;;;5026117;28;20494;-71
2022/09/20 05:10:37;;;;;;;1999.90;999.90;;;10.70;99.90;;;;;;5001074;28;20494;-70
2022/09/20 05:13:15;;;;;;;1999.90;999.90;;;10.80;99.90;;;;;;5024882;28;20502;-71
2022/09/20 05:15:52;;;;;;;1999.90;999.90;;;10.80;99.90;;;;;;5027620;28;20983;-71
2022/09/20 05:18:53;;;;;;;1999.90;999.90;;;10.80;99.90;;;;;;5025633;28;20548;-70
2022/09/20 05:21:47;;;;;;;1999.90;999.90;;;10.80;99.90;;;;;;5032598;28;20527;-72
2022/09/20 05:24:27;;;;;;;1999.90;999.90;;;10.70;99.90;;;;;;5042537;28;20863;-71
2022/09/20 05:27:07;;;;;;;1999.90;999.90;;;10.70;99.90;;;;;;5050760;28;20473;-72
2022/09/20 05:29:46;;;;;;;1999.90;999.90;;;10.80;99.90;;;;;;5050898;28;20490;-72
2022/09/20 05:32:22;;;;;;;1999.90;999.90;;;10.80;99.90;;;;;;5051280;28;20552;-69
2022/09/20 05:34:56;;;;;;;1999.90;999.90;;;10.80;99.90;;;;;;5047765;28;21315;-71
2022/09/20 05:37:36;;;;;;;1999.90;999.90;;;10.90;99.90;;;;;;5045937;28;20461;-71
2022/09/20 05:40:13;;;;;;;1999.90;999.90;;;10.90;99.90;;;;;;5054661;28;20452;-72
2022/09/20 05:42:46;;;;;;;1999.90;999.90;;;10.90;99.90;;;;;;5054381;28;20484;-71
2022/09/20 05:45:47;;;;;;;1999.90;999.90;;;10.90;99.90;;;;;;5054601;28;20513;-70
2022/09/20 05:48:20;;;;;;;1999.90;999.90;;;10.90;99.90;;;;;;5052422;28;20560;-70
2022/09/20 05:50:51;;;;;;;1999.90;999.90;;;10.90;99.90;;;;;;5038372;28;20561;-70
2022/09/20 05:53:47;;;;;;;1999.90;999.90;;;10.90;99.90;;;;;;5031343;28;20478;-72
2022/09/20 05:56:25;;;;;;;1999.90;999.90;;;10.80;99.90;;;;;;5029531;28;20459;-72
2022/09/20 05:59:05;;;;;;;1999.90;999.90;;;10.80;99.90;;;;;;5030759;28;20513;-70
2022/09/20 06:01:39;;;;;;;1999.90;999.90;;;10.80;99.90;;;;;;5025963;28;20462;-73
2022/09/20 06:04:16;;;;;;;1999.90;999.90;;;10.80;99.90;;;;;;5028790;28;20808;-73
2022/09/20 06:06:51;;;;;;;1999.90;999.90;;;10.90;99.90;;;;;;5029996;28;20557;-71
2022/09/20 06:09:50;;;;;;;1999.90;999.90;;;10.90;99.90;;;;;;5031930;28;20601;-73
2022/09/20 06:12:34;;;;;;;1999.90;999.90;;;10.90;99.90;;;;;;5035509;28;20513;-73
2022/09/20 06:15:16;;;;;;;1999.90;999.90;;;10.90;99.90;;;;;;5032821;28;20907;-68
2022/09/20 06:17:49;;;;;;;1999.90;999.90;;;10.90;99.90;;;;;;5029393;28;20481;-72
2022/09/20 06:20:25;;;;;;;1999.90;999.90;;;10.80;99.90;;;;;;5031010;28;20455;-72
2022/09/20 06:22:54;;;;;;;1999.90;999.90;;;10.90;99.90;;;;;;5031909;28;20466;-71
2022/09/20 06:25:25;;;;;;;1999.90;999.90;;;10.90;99.90;;;;;;5031198;28;20524;-72
2022/09/20 06:27:54;;;;;;;1999.90;999.90;;;10.90;99.90;;;;;;5030874;28;20566;-72
2022/09/20 06:30:26;;;;;;;1999.90;999.90;;;10.90;99.90;;;;;;5030532;28;20908;-72
2022/09/20 06:32:57;;;;;;;1999.90;999.90;;;10.90;99.90;;;;;;5031373;28;20887;-72
2022/09/20 06:35:28;;;;;;;1999.90;999.90;;;10.90;99.90;;;;;;5033004;28;20878;-72
2022/09/20 06:43:39;;;;;;;1999.90;999.90;;;11.00;99.90;;;;;;5038495;28;20450;-72
2022/09/20 06:46:06;;;;;;;1999.90;999.90;;;11.00;99.90;;;;;;5029918;28;20467;-73
2022/09/20 06:48:32;;;;;;;1999.90;999.90;;;11.00;99.90;;;;;;5034816;28;20471;-73
2022/09/20 06:51:01;;;;;;;1999.90;999.90;;;11.00;99.90;;;;;;5040284;28;20578;-72
2022/09/20 06:53:31;;;;;;;1999.90;999.90;;;11.00;99.90;;;;;;5029964;28;20474;-73
2022/09/20 06:56:00;;;;;;;1999.90;999.90;;;11.00;99.90;;;;;;5030702;28;20470;-72
2022/09/20 06:58:27;;;;;;;1999.90;999.90;;;11.00;99.90;;;;;;5031164;28;20467;-72
2022/09/20 07:00:53;;;;;;;1999.90;999.90;;;11.00;99.90;;;;;;5029410;28;20494;-70
2022/09/20 07:03:20;;;;;;;1999.90;999.90;;;11.10;99.90;;;;;;5029772;28;21275;-72
2022/09/20 07:05:47;;;;;;;1999.90;999.90;;;11.10;99.90;;;;;;5032202;28;20951;-73
2022/09/20 07:08:13;;;;;;;1999.90;999.90;;;11.20;99.90;;;;;;5031493;28;20526;-72
2022/09/20 07:10:40;;;;;;;1999.90;999.90;;;11.20;99.90;;;;;;5032187;28;20483;-72
2022/09/20 07:13:12;;;;;;;1999.90;999.90;;;11.20;99.90;;;;;;5029778;28;20467;-72
2022/09/20 07:15:39;;;;;;;1999.90;999.90;;;11.20;99.90;;;;;;5031077;28;20948;-73
2022/09/20 07:18:06;;;;;;;1999.90;999.90;;;11.20;99.90;;;;;;5029116;28;20852;-72
2022/09/20 07:20:33;;;;;;;1999.90;999.90;;;11.20;99.90;;;;;;5029276;28;20975;-69
2022/09/20 07:22:59;;;;;;;1999.90;999.90;;;11.20;99.90;;;;;;5032938;28;20490;-71
2022/09/20 07:25:26;;;;;;;1999.90;999.90;;;11.40;99.90;;;;;;5044316;28;20455;-73
2022/09/20 07:27:53;;;;;;;1999.90;999.90;;;11.50;99.90;;;;;;5052349;28;20478;-70
2022/09/20 07:30:21;;;;;;;1999.90;999.90;;;11.50;99.90;;;;;;5052757;28;20478;-72
2022/09/20 07:32:48;;;;;;;1999.90;999.90;;;11.50;99.90;;;;;;5052762;28;20447;-72
2022/09/20 07:35:15;;;;;;;1999.90;999.90;;;11.40;99.90;;;;;;5049536;28;20529;-71
2022/09/20 07:37:42;;;;;;;1999.90;999.90;;;11.40;99.90;;;;;;5043786;28;20535;-71
2022/09/20 07:40:10;;;;;;;1999.90;999.90;;;11.30;99.90;;;;;;5053056;28;20438;-71
2022/09/20 07:42:37;;;;;;;1999.90;999.90;;;11.40;99.90;;;;;;5052714;28;20457;-72
2022/09/20 07:45:05;;;;;;;1999.90;999.90;;;11.40;99.90;;;;;;5042922;28;20909;-72
2022/09/20 07:47:34;;;;;;;1999.90;999.90;;;11.50;99.90;;;;;;5044965;28;20853;-72
2022/09/20 07:50:01;;;;;;;1999.90;999.90;;;11.50;99.90;;;;;;5039661;28;20483;-73
2022/09/20 07:52:28;;;;;;;1999.90;999.90;;;11.50;99.90;;;;;;5044222;28;20453;-71
2022/09/20 07:54:55;;;;;;;1999.90;999.90;;;11.50;99.90;;;;;;5048221;28;20537;-72
2022/09/20 07:57:21;;;;;;;1999.90;999.90;;;11.50;99.90;;;;;;5029333;28;20483;-72
2022/09/20 07:59:48;;;;;;;1999.90;999.90;;;11.50;99.90;;;;;;5032204;28;20469;-73
2022/09/20 08:02:15;;;;;;;1999.90;999.90;;;11.50;99.90;;;;;;5030615;28;20459;-72
2022/09/20 08:04:43;;;;;;;1999.90;999.90;;;11.90;99.90;;;;;;5027118;28;20459;-72
2022/09/20 08:07:11;;;;;;;1999.90;999.90;;;11.60;99.90;;;;;;5024026;28;20498;-72
2022/09/20 08:09:38;;;;;;;1999.90;999.90;;;11.70;99.90;;;;;;5029740;28;20510;-73
2022/09/20 08:12:07;;;;;;;1999.90;999.90;;;11.70;99.90;;;;;;5036341;28;20517;-72
2022/09/20 08:14:34;;;;;;;1999.90;999.90;;;11.90;99.90;;;;;;5031875;28;20459;-71
2022/09/20 08:17:01;;;;;;;1999.90;999.90;;;11.90;99.90;;;;;;5039878;28;20562;-72
2022/09/20 08:19:29;;;;;;;1999.90;999.90;;;12.00;99.90;;;;;;5030264;28;20542;-72
2022/09/20 08:21:57;;;;;;;1999.90;999.90;;;12.10;99.90;;;;;;5028895;28;20455;-69
2022/09/20 08:24:25;;;;;;;1999.90;999.90;;;12.30;99.90;;;;;;5032966;28;20463;-70
2022/09/20 08:26:52;;;;;;;1999.90;999.90;;;12.50;99.90;;;;;;5032870;28;20492;-70
2022/09/20 08:29:19;;;;;;;1999.90;999.90;;;12.70;99.90;;;;;;5027948;28;20467;-70
2022/09/20 08:31:46;;;;;;;1999.90;999.90;;;12.90;99.90;;;;;;5031679;28;20483;-71
2022/09/20 08:34:14;;;;;;;1999.90;999.90;;;13.00;99.90;;;;;;5029419;28;20471;-70
2022/09/20 08:36:44;;;;;;;1999.90;999.90;;;13.30;99.90;;;;;;5027847;28;20509;-68
2022/09/20 08:39:13;;;;;;;1999.90;999.90;;;13.60;99.90;;;;;;5028074;28;20470;-69
2022/09/20 08:41:45;;;;;;;1999.90;999.90;;;13.60;99.90;;;;;;5026964;28;21008;-69
2022/09/20 08:44:17;;;;;;;1999.90;999.90;;;13.60;99.90;;;;;;5028398;28;20471;-69
2022/09/20 08:46:47;;;;;;;1999.90;999.90;;;13.60;99.90;;;;;;5030030;28;20486;-70
2022/09/20 08:49:19;;;;;;;1999.90;999.90;;;13.80;99.90;;;;;;5031722;28;20525;-68
2022/09/20 08:51:49;;;;;;;1999.90;999.90;;;14.00;99.90;;;;;;5031691;28;20483;-68
2022/09/20 08:54:18;;;;;;;1999.90;999.90;;;13.80;99.90;;;;;;5031600;28;20451;-68
2022/09/20 08:56:45;;;;;;;1999.90;999.90;;;13.70;99.90;;;;;;5026191;28;20542;-68
2022/09/20 08:59:15;;;;;;;1999.90;999.90;;;13.80;99.90;;;;;;5028115;28;20467;-68
2022/09/20 09:01:42;;;;;;;1999.90;999.90;;;13.90;99.90;;;;;;5027905;28;20951;-70
2022/09/20 09:04:13;;;;;;;1999.90;999.90;;;13.70;99.90;;;;;;5027573;28;20875;-69
2022/09/20 09:06:41;;;;;;;1999.90;999.90;;;13.60;99.90;;;;;;5028538;28;20482;-69
2022/09/20 09:09:11;;;;;;;1999.90;999.90;;;13.50;99.90;;;;;;5027420;28;21369;-69
2022/09/20 09:11:41;;;;;;;1999.90;999.90;;;13.30;99.90;;;;;;5033059;28;20552;-69
2022/09/20 09:16:54;;;;;;;1999.90;999.90;;;12.90;99.90;;;;;;5031741;28;20529;-69
2022/09/20 09:19:29;;;;;;;1999.90;999.90;;;12.90;99.90;;;;;;5035388;28;20461;-69
2022/09/20 09:22:00;;;;;;;1999.90;999.90;;;12.90;99.90;;;;;;5047045;28;20446;-69
2022/09/20 09:24:27;;;;;;;1999.90;999.90;;;13.10;99.90;;;;;;5055071;28;20871;-68
2022/09/20 09:27:08;;;;;;;1999.90;999.90;;;13.20;99.90;;;;;;5049121;28;22635;-67
2022/09/20 09:29:35;;;;;;;1999.90;999.90;;;13.30;99.90;;;;;;5030511;28;20469;-69
2022/09/20 09:32:20;;;;;;;1999.90;999.90;;;13.30;99.90;;;;;;5031298;28;20990;-66
2022/09/20 09:34:47;;;;;;;1999.90;999.90;;;13.60;99.90;;;;;;5028541;28;20459;-68
2022/09/20 09:37:24;;;;;;;1999.90;999.90;;;13.80;99.90;;;;;;5029640;28;20495;-69
2022/09/20 09:40:08;;;;;;;1999.90;999.90;;;14.10;99.90;;;;;;5030615;28;20605;-67
2022/09/20 09:42:36;;;;;;;1999.90;999.90;;;14.40;99.90;;;;;;5027640;28;21022;-68
2022/09/20 09:45:13;;;;;;;1999.90;999.90;;;14.50;99.90;;;;;;5033589;28;20466;-68
2022/09/20 09:47:40;;;;;;;1999.90;999.90;;;14.40;99.90;;;;;;5038769;28;20489;-68
2022/09/20 09:50:21;;;;;;;1999.90;999.90;;;14.70;99.90;;;;;;5046287;28;20450;-67
2022/09/20 09:52:58;;;;;;;1999.90;999.90;;;15.10;99.90;;;;;;5054770;28;20473;-68
2022/09/20 09:55:28;;;;;;;1999.90;999.90;;;15.40;99.90;;;;;;5053818;28;20446;-68
2022/09/20 09:58:04;;;;;;;1999.90;999.90;;;15.30;99.90;;;;;;5041311;28;21053;-68
2022/09/20 10:00:34;;;;;;;1999.90;999.90;;;14.90;99.90;;;;;;5029570;28;20455;-68
2022/09/20 10:03:17;;;;;;;1999.90;999.90;;;14.40;99.90;;;;;;5030622;28;20829;-68
2022/09/20 10:05:54;;;;;;;1999.90;999.90;;;14.00;99.90;;;;;;5033373;28;20963;-69
2022/09/20 10:08:29;;;;;;;1999.90;999.90;;;13.70;99.90;;;;;;5034044;28;20516;-68
2022/09/20 10:11:06;;;;;;;1999.90;999.90;;;13.50;99.90;;;;;;5031188;28;20995;-68
2022/09/20 10:13:38;;;;;;;1999.90;999.90;;;13.40;99.90;;;;;;5034152;28;20443;-70
2022/09/20 10:16:15;;;;;;;1999.90;999.90;;;13.40;99.90;;;;;;5036398;28;20456;-68
2022/09/20 10:18:51;;;;;;;1999.90;999.90;;;13.60;99.90;;;;;;5030183;28;20463;-68
2022/09/20 10:21:30;;;;;;;1999.90;999.90;;;13.70;99.90;;;;;;5026414;28;20458;-68
2022/09/20 10:24:08;;;;;;;1999.90;999.90;;;14.00;99.90;;;;;;5028317;28;20455;-69
2022/09/20 10:29:24;;;;;;;1999.90;999.90;;;14.50;99.90;;;;;;5028547;28;20476;-75
2022/09/20 10:32:05;;;;;;;1999.90;999.90;;;14.50;99.90;;;;;;5032779;28;20497;-73
2022/09/20 10:34:52;;;;;;;1999.90;999.90;;;14.50;99.90;;;;;;5025209;28;20979;-74
2022/09/20 10:37:26;;;;;;;1999.90;999.90;;;14.70;99.90;;;;;;5029435;28;20493;-75
2022/09/20 10:40:03;;;;;;;1999.90;999.90;;;14.90;99.90;;;;;;5028919;28;21687;-73
2022/09/20 10:45:33;;;;;;;1999.90;999.90;;;14.90;99.90;;;;;;5025903;28;20446;-74
2022/09/20 10:48:06;;;;;;;1999.90;999.90;;;15.20;99.90;;;;;;5029181;28;20482;-73
2022/09/20 10:50:42;;;;;;;1999.90;999.90;;;15.30;99.90;;;;;;5026738;28;20472;-75
2022/09/20 10:53:26;;;;;;;1999.90;999.90;;;15.10;99.90;;;;;;5031399;28;20462;-73
2022/09/20 10:56:03;;;;;;;1999.90;999.90;;;15.10;99.90;;;;;;5026309;28;21184;-74
2022/09/20 10:58:46;;;;;;;1999.90;999.90;;;15.40;99.90;;;;;;5025642;28;20508;-73
2022/09/20 11:01:19;;;;;;;1999.90;999.90;;;15.20;99.90;;;;;;5028681;28;20462;-74
2022/09/20 11:04:18;;;;;;;1999.90;999.90;;;15.20;99.90;;;;;;5026639;28;21078;-73
2022/09/20 11:06:53;;;;;;;1999.90;999.90;;;15.30;99.90;;;;;;5028495;28;20517;-75
2022/09/20 11:09:24;;;;;;;1999.90;999.90;;;15.20;99.90;;;;;;5032701;28;20467;-75
2022/09/20 11:11:56;;;;;;;1999.90;999.90;;;14.90;99.90;;;;;;5029643;28;20584;-73
2022/09/20 11:14:32;;;;;;;1999.90;999.90;;;14.40;99.90;;;;;;5031977;28;20486;-70
2022/09/20 11:17:08;;;;;;;1999.90;999.90;;;13.80;99.90;;;;;;5025979;28;20505;-73
2022/09/20 11:19:46;;;;;;;1999.90;999.90;;;13.50;99.90;;;;;;5037075;28;20455;-74
2022/09/20 11:22:17;;;;;;;1999.90;999.90;;;13.40;99.90;;;;;;5026905;28;20499;-75
2022/09/20 11:24:49;;;;;;;1999.90;999.90;;;13.50;99.90;;;;;;5029153;28;20495;-74
2022/09/20 11:27:22;;;;;;;1999.90;999.90;;;13.80;99.90;;;;;;5027913;28;20492;-74
2022/09/20 11:29:51;;;;;;;1999.90;999.90;;;14.20;99.90;;;;;;5032196;28;20471;-73
2022/09/20 11:32:24;;;;;;;1999.90;999.90;;;14.20;99.90;;;;;;5032316;28;20566;-73
2022/09/20 11:34:54;;;;;;;1999.90;999.90;;;14.20;99.90;;;;;;5026930;28;20471;-71
2022/09/20 11:37:25;;;;;;;1999.90;999.90;;;14.50;99.90;;;;;;5033098;28;20510;-73
2022/09/20 11:39:54;;;;;;;1999.90;999.90;;;15.00;99.90;;;;;;5033268;28;20439;-72
2022/09/20 11:42:25;;;;;;;1999.90;999.90;;;15.50;99.90;;;;;;5049366;28;20438;-72
2022/09/20 11:44:53;;;;;;;1999.90;999.90;;;15.90;99.90;;;;;;5036415;28;20452;-74
2022/09/20 11:47:25;;;;;;;1999.90;999.90;;;15.70;99.90;;;;;;5033184;28;20533;-73
2022/09/20 11:50:28;;;;;;;1999.90;999.90;;;15.50;99.90;;;;;;5031157;28;20459;-73
2022/09/20 11:53:10;;;;;;;1999.90;999.90;;;15.40;99.90;;;;;;5028672;28;20435;-73
2022/09/20 11:55:43;;;;;;;1999.90;999.90;;;15.10;99.90;;;;;;5032580;28;21145;-72
2022/09/20 11:58:12;;;;;;;1999.90;999.90;;;15.10;99.90;;;;;;5032675;28;20517;-73
2022/09/20 12:00:42;;;;;;;1999.90;999.90;;;15.00;99.90;;;;;;5032874;28;20443;-74
2022/09/20 12:03:35;;;;;;;1999.90;999.90;;;14.90;99.90;;;;;;5031515;28;20546;-74
2022/09/20 12:06:03;;;;;;;1999.90;999.90;;;14.60;99.90;;;;;;5032055;28;20424;-75
2022/09/20 12:08:33;;;;;;;1999.90;999.90;;;14.50;99.90;;;;;;5032746;28;20471;-73
2022/09/20 12:11:04;;;;;;;1999.90;999.90;;;14.70;99.90;;;;;;5033219;28;20911;-73
2022/09/20 12:13:34;;;;;;;1999.90;999.90;;;14.30;99.90;;;;;;5032308;28;20822;-73
2022/09/20 12:16:04;;;;;;;1999.90;999.90;;;14.20;99.90;;;;;;5030103;28;20513;-76
2022/09/20 12:18:45;;;;;;;1999.90;999.90;;;14.20;99.90;;;;;;5033049;28;20463;-74
2022/09/20 12:21:15;;;;;;;1999.90;999.90;;;14.40;99.90;;;;;;5028947;28;20553;-74
2022/09/20 12:24:17;;;;;;;1999.90;999.90;;;14.40;99.90;;;;;;5027801;28;20459;-73
2022/09/20 12:26:49;;;;;;;1999.90;999.90;;;14.40;99.90;;;;;;5026124;28;20486;-76
2022/09/20 12:29:50;;;;;;;1999.90;999.90;;;14.10;99.90;;;;;;5027523;28;20455;-71
2022/09/20 12:32:55;;;;;;;1999.90;999.90;;;14.00;99.90;;;;;;5027381;28;20561;-73
2022/09/20 12:36:25;;;;;;;1999.90;999.90;;;13.80;99.90;;;;;;5029646;28;20458;-74
2022/09/20 12:39:02;;;;;;;1999.90;999.90;;;13.60;99.90;;;;;;5027505;28;20479;-74
2022/09/20 12:41:43;;;;;;;1999.90;999.90;;;13.60;99.90;;;;;;5024710;28;20466;-74
2022/09/20 12:44:25;;;;;;;1999.90;999.90;;;13.60;99.90;;;;;;5032008;28;20493;-72
2022/09/20 12:46:55;;;;;;;1999.90;999.90;;;13.60;99.90;;;;;;5031627;28;20463;-73
2022/09/20 12:55:33;;;;;;;1999.90;999.90;;;13.60;99.90;;;;;;5038723;28;20805;-74
2022/09/20 12:58:03;;;;;;;1999.90;999.90;;;13.60;99.90;;;;;;5032977;28;20840;-71
2022/09/20 13:00:37;;;;;;;1999.90;999.90;;;13.60;99.90;;;;;;5033536;28;21042;-74
2022/09/20 13:03:27;;;;;;;1999.90;999.90;;;13.80;99.90;;;;;;5030615;28;20574;-75
2022/09/20 13:06:24;;;;;;;1999.90;999.90;;;14.00;99.90;;;;;;5031653;28;21009;-73
2022/09/20 13:09:03;;;;;;;1999.90;999.90;;;14.30;99.90;;;;;;5034668;28;20475;-73